Time;durP1;ratioP1;P1;durP2;ratioP2;P2;SDS_P1;SDS_P2;PMS_P1;PMS_P2;Temp;Humidity;BMP_temperature;BMP_pressure;BME280_temperature;BME280_humidity;BME280_pressure;Samples;Min_cycle;Max_cycle;Signal;HPM_P1;HPM_P2
2022/03/28 00:00:16;;;;;;;11.60;7.05;;;8.60;99.90;;;;;;5015260;28;20026;-84
2022/03/28 00:02:44;;;;;;;10.32;5.80;;;8.50;99.90;;;;;;5015938;28;20117;-84
2022/03/28 00:05:13;;;;;;;12.25;7.10;;;8.50;99.90;;;;;;4997360;28;20033;-84
2022/03/28 00:07:39;;;;;;;9.70;6.80;;;8.50;99.90;;;;;;5014695;28;20127;-84
2022/03/28 00:10:05;;;;;;;15.32;6.65;;;8.40;99.90;;;;;;4996694;28;20044;-85
2022/03/28 00:12:33;;;;;;;12.55;7.22;;;8.30;99.90;;;;;;5015689;28;20124;-87
2022/03/28 00:14:58;;;;;;;13.80;6.93;;;8.30;99.90;;;;;;5016138;28;20022;-86
2022/03/28 00:17:24;;;;;;;13.23;7.63;;;8.30;99.90;;;;;;5015615;28;20037;-86
2022/03/28 00:19:50;;;;;;;14.23;7.40;;;8.30;99.90;;;;;;5015610;28;20025;-86
2022/03/28 00:22:15;;;;;;;11.90;6.55;;;8.30;99.90;;;;;;5016133;28;20030;-85
2022/03/28 00:24:41;;;;;;;12.15;6.72;;;8.20;99.90;;;;;;4998216;28;20474;-85
2022/03/28 00:27:07;;;;;;;12.90;6.88;;;8.20;99.90;;;;;;4997725;28;20080;-86
2022/03/28 00:29:32;;;;;;;13.38;6.30;;;8.20;99.90;;;;;;4997811;28;20414;-85
2022/03/28 00:31:58;;;;;;;10.90;6.63;;;8.10;99.90;;;;;;4996970;28;20032;-85
2022/03/28 00:34:23;;;;;;;13.18;6.97;;;8.10;99.90;;;;;;5014787;28;20105;-85
2022/03/28 00:36:50;;;;;;;13.63;6.85;;;8.00;99.90;;;;;;5014818;28;20046;-85
2022/03/28 00:39:19;;;;;;;12.63;7.68;;;8.00;99.90;;;;;;4997240;28;20034;-86
2022/03/28 00:41:45;;;;;;;12.52;7.15;;;8.00;99.90;;;;;;5014587;28;20042;-85
2022/03/28 00:44:10;;;;;;;9.40;6.57;;;8.00;99.90;;;;;;5014864;28;20033;-87
2022/03/28 00:46:36;;;;;;;11.48;6.32;;;7.90;99.90;;;;;;5014429;28;20084;-85
2022/03/28 00:49:02;;;;;;;13.50;6.85;;;7.90;99.90;;;;;;5014225;28;20030;-86
2022/03/28 00:51:27;;;;;;;13.88;7.35;;;7.80;99.90;;;;;;5014320;28;20394;-86
2022/03/28 00:53:53;;;;;;;12.15;7.38;;;7.80;99.90;;;;;;5014136;28;20022;-85
2022/03/28 00:56:20;;;;;;;15.02;8.27;;;7.80;99.90;;;;;;4995909;28;20026;-85
2022/03/28 00:58:46;;;;;;;13.13;7.22;;;7.80;99.90;;;;;;5013822;28;20071;-86
2022/03/28 01:01:12;;;;;;;12.20;7.32;;;7.80;99.90;;;;;;5012456;28;20038;-85
2022/03/28 01:03:38;;;;;;;10.60;7.15;;;7.80;99.90;;;;;;5021486;28;20033;-86
2022/03/28 01:06:04;;;;;;;14.63;7.30;;;7.80;99.90;;;;;;5013282;28;20030;-85
2022/03/28 01:08:31;;;;;;;12.95;7.85;;;7.80;99.90;;;;;;5045135;23;20106;-90
2022/03/28 01:11:02;;;;;;;15.75;8.18;;;7.80;99.90;;;;;;5007830;28;20018;-86
2022/03/28 01:13:28;;;;;;;12.57;6.95;;;7.80;99.90;;;;;;5015750;28;20108;-87
2022/03/28 01:15:54;;;;;;;13.82;7.53;;;7.70;99.90;;;;;;5015725;28;20564;-87
2022/03/28 01:18:19;;;;;;;12.52;7.38;;;7.70;99.90;;;;;;5022732;28;20033;-86
2022/03/28 01:20:45;;;;;;;17.38;7.57;;;7.70;99.90;;;;;;4996438;28;20117;-87
2022/03/28 01:23:11;;;;;;;13.95;7.00;;;7.60;99.90;;;;;;5013870;28;20034;-86
2022/03/28 01:25:36;;;;;;;17.83;8.35;;;7.60;99.90;;;;;;5013949;28;20410;-87
2022/03/28 01:28:03;;;;;;;12.48;6.43;;;7.60;99.90;;;;;;4996142;28;20027;-85
2022/03/28 01:30:32;;;;;;;12.02;7.70;;;7.50;99.90;;;;;;4976782;28;20018;-87
2022/03/28 01:32:59;;;;;;;13.95;7.53;;;7.50;99.90;;;;;;4994161;28;20022;-87
2022/03/28 01:35:30;;;;;;;11.38;7.05;;;7.40;99.90;;;;;;4977312;28;20109;-87
2022/03/28 01:37:56;;;;;;;;;;;7.40;99.90;;;;;;4977663;28;20029;-86
2022/03/28 01:40:22;;;;;;;16.40;7.88;;;7.40;99.90;;;;;;4995426;28;19906;-87
2022/03/28 01:42:49;;;;;;;13.15;6.95;;;7.40;99.90;;;;;;4977473;28;20375;-87
2022/03/28 01:45:15;;;;;;;12.73;7.40;;;7.30;99.90;;;;;;4978069;28;20453;-87
2022/03/28 01:47:41;;;;;;;10.65;7.20;;;7.30;99.90;;;;;;4994993;28;20073;-87
2022/03/28 01:50:07;;;;;;;13.52;7.50;;;7.30;99.90;;;;;;4976932;28;20498;-85
2022/03/28 01:52:33;;;;;;;14.93;7.82;;;7.20;99.90;;;;;;4977090;28;20030;-85
2022/03/28 01:54:59;;;;;;;13.73;8.05;;;7.10;99.90;;;;;;4977272;28;20506;-87
2022/03/28 01:57:24;;;;;;;13.80;7.35;;;7.10;99.90;;;;;;4976692;28;20475;-87
2022/03/28 01:59:50;;;;;;;16.33;8.90;;;7.10;99.90;;;;;;4995331;28;20054;-87
2022/03/28 02:02:16;;;;;;;13.88;7.13;;;7.10;99.90;;;;;;4978054;28;20494;-87
2022/03/28 02:04:41;;;;;;;13.75;7.70;;;7.10;99.90;;;;;;4998993;28;20038;-87
2022/03/28 02:07:07;;;;;;;14.23;8.25;;;7.20;99.90;;;;;;4998119;28;20053;-87
2022/03/28 02:09:32;;;;;;;15.60;7.70;;;7.10;99.90;;;;;;4980896;28;20410;-87
2022/03/28 02:11:58;;;;;;;14.75;7.18;;;7.10;99.90;;;;;;4981171;28;20109;-87
2022/03/28 02:14:23;;;;;;;15.02;8.13;;;7.00;99.90;;;;;;5014170;28;20057;-90
2022/03/28 02:16:49;;;;;;;12.48;7.35;;;7.10;99.90;;;;;;5005263;28;20045;-95
2022/03/28 02:19:15;;;;;;;16.30;8.52;;;7.00;99.90;;;;;;5023098;28;20018;-96
2022/03/28 02:21:40;;;;;;;14.07;8.13;;;7.00;99.90;;;;;;5020889;28;20027;-96
2022/03/28 02:24:06;;;;;;;14.13;7.78;;;7.00;99.90;;;;;;5020827;28;20084;-95
2022/03/28 02:26:32;;;;;;;15.25;8.55;;;7.00;99.90;;;;;;5002349;28;20069;-90
2022/03/28 02:28:58;;;;;;;17.15;8.63;;;7.00;99.90;;;;;;5001417;28;20090;-92
2022/03/28 02:31:23;;;;;;;19.88;8.38;;;6.90;99.90;;;;;;5001157;28;20041;-91
2022/03/28 02:33:49;;;;;;;12.60;8.05;;;6.90;99.90;;;;;;5020744;28;20022;-94
2022/03/28 02:36:15;;;;;;;16.35;8.20;;;6.90;99.90;;;;;;5020443;28;20042;-92
2022/03/28 02:38:40;;;;;;;15.70;8.93;;;6.90;99.90;;;;;;5003555;28;20014;-95
2022/03/28 02:41:07;;;;;;;19.17;8.35;;;6.90;99.90;;;;;;5020732;28;20029;-94
2022/03/28 02:43:32;;;;;;;16.90;8.32;;;6.90;99.90;;;;;;5021048;28;20053;-93
2022/03/28 02:45:58;;;;;;;13.57;8.35;;;6.80;99.90;;;;;;5020997;28;20022;-95
2022/03/28 02:48:23;;;;;;;13.75;8.40;;;6.80;99.90;;;;;;5020637;28;20106;-94
2022/03/28 02:50:49;;;;;;;19.38;9.48;;;6.80;99.90;;;;;;5020849;28;20077;-95
2022/03/28 02:53:16;;;;;;;13.98;8.10;;;6.80;99.90;;;;;;5020893;28;20086;-94
2022/03/28 02:55:41;;;;;;;15.02;8.20;;;6.70;99.90;;;;;;5020853;28;20074;-95
2022/03/28 02:58:07;;;;;;;13.35;8.05;;;6.70;99.90;;;;;;5003729;28;20026;-94
2022/03/28 03:00:33;;;;;;;18.27;8.90;;;6.60;99.90;;;;;;5020470;28;20014;-95
2022/03/28 03:02:59;;;;;;;13.93;7.88;;;6.60;99.90;;;;;;5020955;28;20018;-96
2022/03/28 03:05:24;;;;;;;15.15;7.80;;;6.50;99.90;;;;;;5020604;28;20048;-95
2022/03/28 03:07:50;;;;;;;14.75;8.32;;;6.50;99.90;;;;;;5019902;28;20022;-91
2022/03/28 03:10:16;;;;;;;20.00;9.30;;;6.50;99.90;;;;;;5003510;28;20048;-96
2022/03/28 03:12:41;;;;;;;14.63;8.75;;;6.50;99.90;;;;;;5019924;28;20074;-96
2022/03/28 03:15:07;;;;;;;16.98;8.75;;;6.50;99.90;;;;;;5003833;28;20010;-96
2022/03/28 03:17:33;;;;;;;14.13;7.95;;;6.50;99.90;;;;;;5027128;28;20026;-96
2022/03/28 03:19:59;;;;;;;16.77;8.27;;;6.40;99.90;;;;;;5025853;28;20022;-94
2022/03/28 03:22:24;;;;;;;20.15;9.13;;;6.30;99.90;;;;;;5020294;28;20038;-95
2022/03/28 03:24:50;;;;;;;21.08;9.27;;;6.40;99.90;;;;;;5003389;28;20025;-94
2022/03/28 03:27:16;;;;;;;13.73;7.32;;;6.40;99.90;;;;;;5020626;28;20029;-95
2022/03/28 03:29:41;;;;;;;14.68;8.50;;;6.40;99.90;;;;;;5020879;28;20018;-92
2022/03/28 03:32:08;;;;;;;16.73;9.40;;;6.30;99.90;;;;;;5020626;28;20038;-92
2022/03/28 03:34:35;;;;;;;16.60;8.55;;;6.30;99.90;;;;;;5020899;28;20014;-94
2022/03/28 03:37:01;;;;;;;14.93;8.63;;;6.30;99.90;;;;;;5020319;28;20029;-94
2022/03/28 03:39:27;;;;;;;18.23;9.35;;;6.30;99.90;;;;;;5020698;28;20010;-94
2022/03/28 03:41:53;;;;;;;15.25;9.32;;;6.30;99.90;;;;;;4999784;28;20037;-85
2022/03/28 03:44:19;;;;;;;16.90;9.13;;;6.30;99.90;;;;;;5020144;28;20025;-95
2022/03/28 03:46:45;;;;;;;19.65;8.65;;;6.30;99.90;;;;;;5020406;28;20045;-96
2022/03/28 03:49:11;;;;;;;15.20;8.02;;;6.20;99.90;;;;;;5003452;28;20014;-93
2022/03/28 03:51:38;;;;;;;15.48;8.85;;;6.10;99.90;;;;;;5020322;28;20038;-93
2022/03/28 03:54:05;;;;;;;18.17;9.48;;;6.00;99.90;;;;;;5020383;28;20015;-93
2022/03/28 03:56:31;;;;;;;16.92;10.00;;;5.90;99.90;;;;;;5019879;28;20042;-93
2022/03/28 03:58:57;;;;;;;24.80;10.13;;;5.80;99.90;;;;;;5002962;28;20034;-94
2022/03/28 04:01:26;;;;;;;15.32;9.45;;;5.90;99.90;;;;;;5019928;28;20014;-95
2022/03/28 04:03:52;;;;;;;19.25;8.93;;;5.80;99.90;;;;;;5020415;28;20015;-92
2022/03/28 04:06:18;;;;;;;17.65;9.73;;;5.80;99.90;;;;;;5020093;28;20019;-95
2022/03/28 04:08:43;;;;;;;18.60;9.13;;;5.90;99.90;;;;;;5020180;28;20023;-94
2022/03/28 04:11:09;;;;;;;18.08;9.82;;;5.80;99.90;;;;;;5003162;28;20053;-94
2022/03/28 04:13:34;;;;;;;18.65;9.48;;;5.70;99.90;;;;;;5003112;28;20015;-94
2022/03/28 04:16:01;;;;;;;14.35;9.10;;;5.60;99.90;;;;;;5019803;28;20029;-87
2022/03/28 04:18:27;;;;;;;15.20;9.25;;;5.50;99.90;;;;;;5019805;28;20027;-89
2022/03/28 04:20:53;;;;;;;21.50;11.15;;;5.50;99.90;;;;;;5019217;28;20026;-94
2022/03/28 04:23:20;;;;;;;19.25;9.45;;;5.60;99.90;;;;;;5002916;28;20039;-95
2022/03/28 04:25:45;;;;;;;22.20;10.23;;;5.70;99.90;;;;;;5019104;28;20018;-94
2022/03/28 04:28:11;;;;;;;21.60;11.50;;;5.60;99.90;;;;;;5019234;28;20022;-95
2022/03/28 04:30:37;;;;;;;16.75;10.27;;;5.70;99.90;;;;;;5019577;28;20010;-93
2022/03/28 04:33:03;;;;;;;25.52;10.95;;;5.70;99.90;;;;;;5019410;28;20045;-92
2022/03/28 04:35:29;;;;;;;25.10;9.77;;;5.70;99.90;;;;;;5019487;28;20082;-93
2022/03/28 04:37:55;;;;;;;23.35;11.13;;;5.70;99.90;;;;;;5019624;28;20037;-95
2022/03/28 04:40:21;;;;;;;26.90;11.70;;;5.70;99.90;;;;;;4998366;28;20010;-93
2022/03/28 04:42:47;;;;;;;19.08;11.15;;;5.80;99.90;;;;;;5018378;28;20030;-89
2022/03/28 04:45:13;;;;;;;25.45;11.45;;;5.80;99.90;;;;;;5008760;28;20042;-91
2022/03/28 04:47:39;;;;;;;17.92;10.82;;;5.90;99.90;;;;;;4975667;28;20050;-89
2022/03/28 04:50:06;;;;;;;26.25;10.50;;;5.90;99.90;;;;;;4985472;28;20065;-88
2022/03/28 04:52:32;;;;;;;19.25;10.27;;;5.80;99.90;;;;;;4990439;28;20094;-88
2022/03/28 04:54:57;;;;;;;21.08;10.80;;;5.80;99.90;;;;;;4996744;28;20023;-90
2022/03/28 04:57:23;;;;;;;22.40;11.60;;;5.80;99.90;;;;;;4997688;28;20023;-91
2022/03/28 04:59:49;;;;;;;22.17;13.15;;;5.90;99.90;;;;;;4982274;28;20100;-92
2022/03/28 05:02:14;;;;;;;22.50;11.88;;;6.00;99.90;;;;;;4998878;28;20031;-93
2022/03/28 05:04:41;;;;;;;22.05;11.10;;;5.90;99.90;;;;;;4998605;28;20014;-91
2022/03/28 05:07:06;;;;;;;20.13;11.18;;;5.80;99.90;;;;;;4981900;28;20011;-93
2022/03/28 05:12:10;;;;;;;24.58;11.13;;;5.60;99.90;;;;;;5686406;22;20038;-92
2022/03/28 05:14:36;;;;;;;25.38;12.70;;;5.60;99.90;;;;;;5771748;22;20040;-95
2022/03/28 05:17:07;;;;;;;30.58;12.18;;;5.70;99.90;;;;;;5036952;28;20018;-95
2022/03/28 05:19:43;;;;;;;25.25;12.48;;;5.70;99.90;;;;;;5024176;28;20010;-94
2022/03/28 05:22:08;;;;;;;26.30;12.88;;;5.60;99.90;;;;;;5018071;28;20026;-95
2022/03/28 05:24:35;;;;;;;28.02;12.68;;;5.60;99.90;;;;;;5009330;28;20018;-95
2022/03/28 05:35:07;;;;;;;22.00;12.18;;;5.60;99.90;;;;;;5243828;22;20042;-94
2022/03/28 05:37:34;;;;;;;21.90;13.02;;;5.60;99.90;;;;;;5019016;28;20024;-94
2022/03/28 05:40:01;;;;;;;23.70;12.35;;;5.60;99.90;;;;;;5037351;28;20037;-93
2022/03/28 05:42:27;;;;;;;23.75;13.27;;;5.60;99.90;;;;;;5020152;28;20156;-94
2022/03/28 05:44:52;;;;;;;20.58;11.88;;;5.50;99.90;;;;;;5036880;28;20034;-95
2022/03/28 05:47:34;;;;;;;25.45;12.73;;;5.60;99.90;;;;;;5020066;28;20097;-92
2022/03/28 05:50:06;;;;;;;24.42;12.57;;;5.50;99.90;;;;;;5019881;28;20025;-94
2022/03/28 05:52:31;;;;;;;23.70;12.45;;;5.60;99.90;;;;;;5037104;28;20022;-94
2022/03/28 05:54:57;;;;;;;22.45;12.60;;;5.60;99.90;;;;;;5020473;28;20050;-93
2022/03/28 05:57:23;;;;;;;27.88;13.57;;;5.60;99.90;;;;;;5037208;28;20020;-94
2022/03/28 05:59:49;;;;;;;25.35;14.18;;;5.60;99.90;;;;;;5037202;28;20026;-94
2022/03/28 06:04:50;;;;;;;25.80;13.80;;;5.60;99.90;;;;;;5053502;22;20042;-95
2022/03/28 06:07:16;;;;;;;23.58;13.02;;;5.70;99.90;;;;;;5019727;28;20029;-96
2022/03/28 06:09:42;;;;;;;24.40;13.20;;;5.60;99.90;;;;;;5019816;28;20017;-95
2022/03/28 06:12:08;;;;;;;27.25;14.60;;;5.70;99.90;;;;;;5394915;23;20046;-95
2022/03/28 06:14:33;;;;;;;28.20;13.90;;;5.70;99.90;;;;;;5019666;28;20026;-92
2022/03/28 06:16:59;;;;;;;25.83;14.95;;;5.80;99.90;;;;;;5036708;28;20015;-95
2022/03/28 06:19:25;;;;;;;24.25;14.10;;;5.80;99.90;;;;;;5000427;28;20098;-94
2022/03/28 06:21:51;;;;;;;25.90;14.25;;;5.90;99.90;;;;;;5016563;28;20127;-93
2022/03/28 06:24:19;;;;;;;26.63;14.57;;;5.90;99.90;;;;;;5017723;28;20086;-88
2022/03/28 06:26:45;;;;;;;23.27;13.68;;;6.00;99.90;;;;;;5018141;28;20041;-90
2022/03/28 06:29:10;;;;;;;31.92;14.63;;;6.00;99.90;;;;;;5017874;28;20022;-92
2022/03/28 06:31:36;;;;;;;23.88;14.25;;;6.20;99.90;;;;;;5018116;28;20010;-92
2022/03/28 06:34:02;;;;;;;31.63;14.60;;;6.20;99.90;;;;;;5001128;28;20023;-93
2022/03/28 06:36:29;;;;;;;24.00;14.52;;;6.30;99.90;;;;;;5017356;28;20014;-94
2022/03/28 06:38:55;;;;;;;26.17;14.88;;;6.30;99.90;;;;;;5016584;28;20021;-93
2022/03/28 06:41:21;;;;;;;27.55;15.43;;;6.40;99.90;;;;;;5016947;28;20019;-93
2022/03/28 06:43:47;;;;;;;33.03;15.88;;;6.50;99.90;;;;;;5017785;28;20018;-95
2022/03/28 06:46:13;;;;;;;29.58;16.58;;;6.60;99.90;;;;;;5000742;28;20041;-88
2022/03/28 06:48:39;;;;;;;30.67;16.52;;;6.70;99.90;;;;;;5018984;28;20045;-88
2022/03/28 06:51:06;;;;;;;28.45;15.80;;;6.80;99.90;;;;;;5002925;28;20030;-90
2022/03/28 06:53:31;;;;;;;31.05;15.98;;;6.80;99.90;;;;;;4985361;28;20042;-88
2022/03/28 06:55:58;;;;;;;26.40;16.05;;;6.90;99.90;;;;;;5000836;28;20030;-90
2022/03/28 06:58:24;;;;;;;27.90;15.25;;;7.00;99.90;;;;;;4983982;28;20090;-89
2022/03/28 07:00:50;;;;;;;26.02;15.45;;;7.10;99.90;;;;;;5008218;28;20018;-89
2022/03/28 07:03:16;;;;;;;28.48;15.02;;;7.30;99.90;;;;;;5002898;28;20014;-89
2022/03/28 07:05:42;;;;;;;30.40;16.70;;;7.40;99.90;;;;;;5000059;28;20056;-88
2022/03/28 07:08:08;;;;;;;25.20;14.60;;;7.50;99.90;;;;;;5006663;28;20046;-88
2022/03/28 07:10:34;;;;;;;27.77;15.82;;;7.70;99.90;;;;;;5002399;28;20042;-90
2022/03/28 07:13:00;;;;;;;30.95;15.63;;;7.90;99.90;;;;;;5019623;28;20089;-87
2022/03/28 07:15:27;;;;;;;27.83;16.25;;;8.00;99.90;;;;;;5003061;28;20025;-89
2022/03/28 07:17:56;;;;;;;27.27;15.05;;;8.10;99.90;;;;;;5019538;28;20014;-88
2022/03/28 07:20:27;;;;;;;26.00;14.98;;;8.20;99.90;;;;;;5019863;28;20018;-89
2022/03/28 07:22:54;;;;;;;27.83;16.02;;;8.30;99.90;;;;;;5002773;28;20018;-88
2022/03/28 07:25:22;;;;;;;29.63;15.05;;;8.40;99.90;;;;;;5002971;28;20022;-91
2022/03/28 07:27:48;;;;;;;28.10;14.82;;;8.50;99.90;;;;;;5002990;28;20019;-90
2022/03/28 07:30:15;;;;;;;24.50;14.00;;;8.60;99.90;;;;;;5002717;28;20026;-90
2022/03/28 07:32:41;;;;;;;31.27;14.25;;;8.80;99.90;;;;;;5019859;28;20026;-90
2022/03/28 07:35:08;;;;;;;26.50;14.32;;;9.00;99.90;;;;;;5019884;28;20094;-88
2022/03/28 07:37:35;;;;;;;23.27;13.90;;;9.10;99.90;;;;;;5002712;28;20368;-88
2022/03/28 07:40:03;;;;;;;23.52;14.50;;;9.30;99.90;;;;;;5019691;28;20040;-87
2022/03/28 07:42:28;;;;;;;23.33;13.68;;;9.50;99.90;;;;;;5019800;28;20034;-90
2022/03/28 07:44:56;;;;;;;22.38;13.15;;;9.70;99.90;;;;;;5002742;28;20007;-88
2022/03/28 07:47:25;;;;;;;25.70;14.25;;;9.90;99.90;;;;;;5005378;23;20049;-84
2022/03/28 07:49:55;;;;;;;21.65;12.77;;;10.20;99.90;;;;;;5006298;28;20038;-84
2022/03/28 07:52:21;;;;;;;22.95;14.02;;;10.50;99.90;;;;;;4990015;28;20058;-85
2022/03/28 07:54:48;;;;;;;25.20;13.15;;;10.60;99.90;;;;;;4992328;28;20022;-85
2022/03/28 07:57:15;;;;;;;20.33;12.65;;;10.90;99.90;;;;;;5026810;28;20041;-85
2022/03/28 07:59:46;;;;;;;23.88;13.88;;;11.10;99.90;;;;;;5008928;28;20018;-86
2022/03/28 08:02:11;;;;;;;19.65;12.77;;;11.50;99.90;;;;;;5009433;28;20041;-85
2022/03/28 08:04:37;;;;;;;25.45;13.95;;;11.70;99.90;;;;;;5016951;28;20030;-86
2022/03/28 08:07:08;;;;;;;23.42;11.93;;;11.80;99.90;;;;;;4990274;28;20068;-84
2022/03/28 08:09:35;;;;;;;19.67;12.07;;;12.20;99.90;;;;;;4991052;28;20094;-86
2022/03/28 08:12:02;;;;;;;22.00;11.63;;;12.50;97.00;;;;;;4992109;28;20463;-85
2022/03/28 08:14:28;;;;;;;20.80;11.38;;;12.70;94.10;;;;;;5012943;28;20022;-84
2022/03/28 08:16:55;;;;;;;20.58;10.77;;;12.70;94.10;;;;;;5006197;28;20368;-86
2022/03/28 08:19:21;;;;;;;22.50;12.18;;;12.80;95.20;;;;;;4988027;28;20027;-84
2022/03/28 08:21:47;;;;;;;22.13;11.55;;;13.20;91.10;;;;;;4989099;28;20069;-87
2022/03/28 08:24:13;;;;;;;20.02;12.02;;;13.50;86.30;;;;;;5009337;28;20038;-87
2022/03/28 08:26:39;;;;;;;21.45;11.07;;;13.60;86.10;;;;;;5009255;28;20062;-86
2022/03/28 08:29:05;;;;;;;24.60;11.23;;;14.20;79.80;;;;;;5005058;28;20053;-87
2022/03/28 08:31:31;;;;;;;20.80;10.50;;;14.60;74.40;;;;;;5013601;28;20113;-87
2022/03/28 08:33:57;;;;;;;20.85;11.45;;;14.90;73.90;;;;;;4988660;28;20041;-86
2022/03/28 08:36:23;;;;;;;25.02;10.27;;;14.90;70.80;;;;;;4988467;28;20150;-87
2022/03/28 08:38:49;;;;;;;20.40;10.70;;;15.00;71.50;;;;;;4989726;28;20027;-86
2022/03/28 08:41:17;;;;;;;34.33;10.65;;;15.10;69.70;;;;;;4991166;28;20094;-87
2022/03/28 08:43:42;;;;;;;19.17;10.30;;;15.20;67.80;;;;;;5008277;28;20082;-87
2022/03/28 08:46:09;;;;;;;18.58;10.15;;;15.50;66.60;;;;;;5009423;28;20026;-86
2022/03/28 08:48:39;;;;;;;19.60;10.90;;;15.60;66.70;;;;;;4998132;28;20509;-87
2022/03/28 08:51:05;;;;;;;21.67;10.23;;;15.40;65.80;;;;;;5027770;28;20209;-86
2022/03/28 08:53:31;;;;;;;18.73;8.75;;;15.90;61.30;;;;;;5027038;28;20022;-86
2022/03/28 08:55:57;;;;;;;16.88;9.60;;;16.20;59.80;;;;;;5014576;28;20022;-86
2022/03/28 08:58:23;;;;;;;17.58;10.00;;;16.10;60.90;;;;;;4988793;28;20022;-85
2022/03/28 09:00:49;;;;;;;17.95;9.90;;;16.20;60.60;;;;;;5009441;28;20026;-85
2022/03/28 09:03:14;;;;;;;20.17;9.20;;;16.60;59.00;;;;;;5010178;28;20117;-85
2022/03/28 09:05:41;;;;;;;19.40;10.25;;;16.50;56.70;;;;;;5008753;28;20030;-85
2022/03/28 09:08:09;;;;;;;18.27;9.30;;;16.50;58.40;;;;;;4989365;28;20041;-85
2022/03/28 09:10:35;;;;;;;17.15;9.32;;;16.50;58.10;;;;;;4989236;28;20034;-85
2022/03/28 09:13:07;;;;;;;17.00;9.15;;;16.60;58.10;;;;;;5007255;28;20030;-86
2022/03/28 09:15:45;;;;;;;18.98;9.77;;;16.70;57.90;;;;;;5008681;28;20105;-87
2022/03/28 09:18:31;;;;;;;19.20;9.73;;;17.00;57.80;;;;;;5009368;28;20019;-86
2022/03/28 09:20:58;;;;;;;20.48;9.15;;;17.20;55.40;;;;;;5008968;28;20018;-86
2022/03/28 09:23:32;;;;;;;18.33;9.23;;;17.30;54.90;;;;;;5008227;28;20034;-86
2022/03/28 09:25:58;;;;;;;17.85;9.90;;;17.50;54.80;;;;;;5008040;28;20026;-86
2022/03/28 09:28:52;;;;;;;17.48;9.52;;;17.40;55.70;;;;;;5008869;28;20038;-86
2022/03/28 09:31:19;;;;;;;17.27;8.40;;;17.40;54.80;;;;;;5013138;28;20034;-86
2022/03/28 09:34:07;;;;;;;23.98;10.20;;;17.50;54.90;;;;;;4999205;28;20022;-87
2022/03/28 09:36:48;;;;;;;21.08;9.52;;;17.60;53.00;;;;;;4999312;28;20038;-87
2022/03/28 09:39:21;;;;;;;17.30;8.85;;;17.70;53.50;;;;;;5016123;28;20022;-87
2022/03/28 09:42:08;;;;;;;18.58;9.10;;;18.00;51.90;;;;;;5014306;28;20048;-85
2022/03/28 09:44:37;;;;;;;21.35;9.80;;;17.90;52.40;;;;;;5015065;28;20007;-85
2022/03/28 09:47:14;;;;;;;19.70;10.43;;;17.70;52.70;;;;;;5013869;28;20105;-85
2022/03/28 09:49:42;;;;;;;19.50;9.68;;;17.60;53.50;;;;;;4998618;28;20022;-85
2022/03/28 09:52:19;;;;;;;20.05;9.18;;;17.70;52.50;;;;;;5014737;28;20030;-86
2022/03/28 09:54:54;;;;;;;19.27;9.02;;;18.00;52.40;;;;;;4999245;28;20025;-86
2022/03/28 09:57:34;;;;;;;20.02;9.40;;;18.20;50.70;;;;;;5015125;28;20015;-85
2022/03/28 10:00:09;;;;;;;18.83;9.80;;;18.20;50.00;;;;;;4999111;28;20026;-85
2022/03/28 10:02:35;;;;;;;18.55;9.13;;;18.40;49.30;;;;;;4998750;28;20065;-86
2022/03/28 10:05:01;;;;;;;17.00;9.65;;;18.50;49.80;;;;;;5008570;28;20035;-86
2022/03/28 10:07:27;;;;;;;18.75;9.32;;;18.50;50.30;;;;;;5006660;28;20026;-86
2022/03/28 10:09:53;;;;;;;20.88;10.18;;;18.60;49.00;;;;;;4990526;28;20478;-86
2022/03/28 10:12:20;;;;;;;19.67;8.80;;;18.50;49.00;;;;;;4990755;28;20029;-86
2022/03/28 10:14:51;;;;;;;20.10;10.40;;;18.40;47.80;;;;;;5008107;28;20026;-86
2022/03/28 10:17:19;;;;;;;22.58;9.35;;;18.40;47.70;;;;;;4990268;28;20018;-85
2022/03/28 10:19:45;;;;;;;22.60;10.13;;;18.60;47.10;;;;;;4991275;28;20053;-85
2022/03/28 10:22:16;;;;;;;17.17;9.73;;;18.60;47.30;;;;;;5008914;28;20027;-86
2022/03/28 10:24:44;;;;;;;21.15;9.52;;;18.60;46.70;;;;;;5013712;28;20038;-86
2022/03/28 10:27:12;;;;;;;18.85;9.63;;;18.40;47.40;;;;;;5012737;28;20359;-85
2022/03/28 10:29:40;;;;;;;24.40;9.98;;;18.40;47.00;;;;;;5012561;28;20030;-86
2022/03/28 10:32:17;;;;;;;18.27;9.15;;;18.60;46.50;;;;;;4994400;28;20027;-86
2022/03/28 10:34:53;;;;;;;17.50;9.52;;;18.70;46.80;;;;;;5012052;28;20033;-86
2022/03/28 10:37:38;;;;;;;17.73;8.75;;;18.80;45.60;;;;;;5012219;28;20042;-86
2022/03/28 10:40:17;;;;;;;23.05;9.70;;;18.90;45.90;;;;;;4994172;28;20121;-86
2022/03/28 10:43:02;;;;;;;18.27;9.60;;;19.30;43.20;;;;;;5012155;28;20125;-86
2022/03/28 10:45:32;;;;;;;19.15;9.32;;;19.30;43.00;;;;;;4994220;28;20399;-86
2022/03/28 10:48:01;;;;;;;22.50;9.68;;;19.40;40.80;;;;;;5011775;28;20042;-87
2022/03/28 10:50:29;;;;;;;19.67;8.80;;;19.50;42.10;;;;;;5011696;28;20026;-86
2022/03/28 10:53:04;;;;;;;20.00;9.73;;;19.50;43.10;;;;;;4992934;28;20053;-85
2022/03/28 10:55:44;;;;;;;18.77;9.27;;;19.80;44.30;;;;;;4993920;28;20050;-86
2022/03/28 10:58:15;;;;;;;20.05;9.77;;;19.90;43.20;;;;;;5010760;28;20405;-86
2022/03/28 11:01:11;;;;;;;17.02;10.00;;;19.90;42.50;;;;;;5011832;28;20030;-86
2022/03/28 11:03:50;;;;;;;16.38;8.50;;;19.60;43.10;;;;;;4992674;28;20107;-87
2022/03/28 11:06:18;;;;;;;16.80;8.70;;;19.90;43.30;;;;;;4991841;28;20467;-86
2022/03/28 11:08:58;;;;;;;19.67;8.88;;;20.80;39.50;;;;;;5011589;28;20027;-86
2022/03/28 11:11:25;;;;;;;18.02;9.15;;;21.00;36.60;;;;;;4994686;28;20026;-86
2022/03/28 11:13:59;;;;;;;16.60;8.98;;;20.70;38.10;;;;;;5010843;28;20427;-86
2022/03/28 11:16:58;;;;;;;26.02;9.65;;;20.80;38.30;;;;;;4993201;28;20058;-86
2022/03/28 11:19:29;;;;;;;17.27;9.50;;;21.10;37.10;;;;;;4968848;28;20039;-86
2022/03/28 11:22:00;;;;;;;18.10;8.90;;;21.50;35.90;;;;;;4974662;28;20027;-86
2022/03/28 11:24:52;;;;;;;16.95;8.55;;;21.70;34.30;;;;;;4975092;28;20026;-87
2022/03/28 11:27:19;;;;;;;17.88;9.32;;;21.70;32.80;;;;;;4991797;28;20084;-86
2022/03/28 11:29:46;;;;;;;19.05;8.93;;;21.80;31.70;;;;;;4974577;28;20031;-86
2022/03/28 11:32:19;;;;;;;18.40;8.52;;;22.00;32.60;;;;;;4973005;28;20090;-86
2022/03/28 11:34:55;;;;;;;16.95;7.70;;;22.10;29.60;;;;;;4990693;28;20078;-87
2022/03/28 11:37:25;;;;;;;18.73;9.60;;;22.50;31.00;;;;;;4975440;28;20022;-86
2022/03/28 11:39:55;;;;;;;18.70;9.38;;;22.50;31.10;;;;;;4993157;28;20023;-86
2022/03/28 11:42:29;;;;;;;16.33;9.37;;;22.90;30.50;;;;;;4993460;28;20046;-86
2022/03/28 11:44:56;;;;;;;17.23;9.50;;;23.10;30.50;;;;;;4975356;28;20027;-87
2022/03/28 11:47:22;;;;;;;19.55;8.82;;;22.90;29.70;;;;;;4973372;28;20126;-86
2022/03/28 11:49:53;;;;;;;17.90;8.90;;;23.20;30.00;;;;;;4993387;28;20035;-86
2022/03/28 11:52:19;;;;;;;18.15;9.95;;;23.50;27.10;;;;;;4976245;28;20038;-86
2022/03/28 11:54:45;;;;;;;16.05;8.90;;;23.30;27.70;;;;;;4998258;28;20073;-86
2022/03/28 12:00:24;;;;;;;19.17;9.23;;;23.20;27.50;;;;;;5012439;28;20144;-86
2022/03/28 12:02:56;;;;;;;17.55;8.77;;;23.10;27.70;;;;;;5012129;28;20034;-86
2022/03/28 12:05:57;;;;;;;18.60;9.75;;;23.20;26.40;;;;;;5012241;28;20030;-86
2022/03/28 12:08:23;;;;;;;13.45;8.20;;;22.90;26.50;;;;;;4991360;28;20042;-86
2022/03/28 12:10:51;;;;;;;17.02;9.38;;;22.50;27.70;;;;;;5011909;28;20052;-86
2022/03/28 12:13:18;;;;;;;17.85;9.63;;;22.80;26.70;;;;;;5012770;28;20033;-86
2022/03/28 12:15:46;;;;;;;15.52;9.10;;;22.70;26.00;;;;;;5011860;28;20078;-86
2022/03/28 12:18:13;;;;;;;13.73;8.90;;;22.30;26.70;;;;;;5012743;28;20027;-85
2022/03/28 12:20:42;;;;;;;14.70;8.70;;;22.10;27.20;;;;;;5012177;28;20023;-86
2022/03/28 12:23:09;;;;;;;21.42;9.98;;;21.60;27.70;;;;;;4994808;28;20230;-86
2022/03/28 12:25:39;;;;;;;14.32;8.63;;;21.50;27.90;;;;;;5012077;28;20033;-86
2022/03/28 12:28:07;;;;;;;19.43;8.97;;;21.60;28.50;;;;;;5013163;28;20018;-86
2022/03/28 12:30:35;;;;;;;15.85;9.73;;;21.60;29.00;;;;;;5013185;28;20098;-86
2022/03/28 12:33:08;;;;;;;18.20;9.45;;;21.50;28.40;;;;;;5012146;28;20033;-86
2022/03/28 12:35:38;;;;;;;22.40;9.77;;;21.50;29.00;;;;;;5012304;28;20033;-86
2022/03/28 12:38:04;;;;;;;21.52;9.50;;;21.50;29.70;;;;;;5012200;28;20022;-86
2022/03/28 12:40:31;;;;;;;15.95;9.30;;;21.60;29.20;;;;;;5012442;28;20014;-87
2022/03/28 12:42:58;;;;;;;18.40;9.32;;;21.70;29.90;;;;;;5011656;28;20031;-86
2022/03/28 12:45:29;;;;;;;16.90;8.95;;;21.90;29.50;;;;;;4993260;28;20014;-86
2022/03/28 12:47:57;;;;;;;16.73;9.07;;;22.10;29.00;;;;;;4994692;28;20045;-86
2022/03/28 12:50:26;;;;;;;20.17;9.35;;;21.80;28.30;;;;;;5011808;28;20034;-86
2022/03/28 12:53:06;;;;;;;16.98;9.05;;;21.80;28.10;;;;;;4994743;28;20084;-86
2022/03/28 12:55:32;;;;;;;14.43;8.95;;;21.90;28.40;;;;;;4994695;28;20022;-86
2022/03/28 12:58:00;;;;;;;16.70;9.32;;;22.00;28.00;;;;;;4995044;28;20041;-87
2022/03/28 13:00:27;;;;;;;23.33;9.77;;;22.00;28.20;;;;;;5011989;28;20018;-87